createdAt,value
2022-07-25T00:02:21.123Z,42.40
2022-07-25T00:04:49.358Z,42.40
2022-07-25T00:07:17.371Z,42.40
2022-07-25T00:09:46.620Z,43.10
2022-07-25T00:12:14.756Z,42.50
2022-07-25T00:14:42.705Z,42.50
2022-07-25T00:17:10.610Z,42.60
2022-07-25T00:19:38.922Z,42.70
2022-07-25T00:22:06.875Z,42.60
2022-07-25T00:24:34.954Z,42.60
2022-07-25T00:27:04.592Z,43.00
2022-07-25T00:29:32.490Z,43.40
2022-07-25T00:32:00.445Z,43.50
2022-07-25T00:34:28.360Z,43.50
2022-07-25T00:36:56.303Z,43.50
2022-07-25T00:39:24.310Z,43.50
2022-07-25T00:41:52.340Z,43.50
2022-07-25T00:44:25.195Z,43.50
2022-07-25T00:46:53.579Z,43.50
2022-07-25T00:49:21.621Z,43.50
2022-07-25T00:51:49.893Z,43.60
2022-07-25T00:54:17.994Z,43.60
2022-07-25T00:56:46.193Z,43.60
2022-07-25T00:59:14.134Z,43.70
2022-07-25T01:01:45.531Z,43.70
2022-07-25T01:04:13.500Z,43.80
2022-07-25T01:06:41.427Z,43.70
2022-07-25T01:09:09.338Z,43.80
2022-07-25T01:11:37.576Z,43.90
2022-07-25T01:14:06.126Z,44.00
2022-07-25T01:16:34.449Z,44.00
2022-07-25T01:19:03.780Z,44.00
2022-07-25T01:21:33.063Z,44.10
2022-07-25T01:24:00.961Z,44.10
2022-07-25T01:26:28.870Z,43.80
2022-07-25T01:28:57.145Z,43.90
2022-07-25T01:31:25.103Z,44.40
2022-07-25T01:33:53.030Z,44.50
2022-07-25T01:36:20.947Z,44.60
2022-07-25T01:38:50.205Z,44.60
2022-07-25T01:41:22.792Z,44.70
2022-07-25T01:43:50.823Z,44.60
2022-07-25T01:46:18.872Z,44.60
2022-07-25T01:48:46.957Z,44.60
2022-07-25T01:51:14.985Z,44.60
2022-07-25T01:53:47.816Z,44.60
2022-07-25T01:56:17.989Z,44.70
2022-07-25T01:58:49.960Z,44.60
2022-07-25T02:01:19.386Z,44.70
2022-07-25T02:03:49.874Z,44.70
2022-07-25T02:06:19.155Z,44.70
2022-07-25T02:08:47.185Z,44.70
2022-07-25T02:11:17.204Z,44.70
2022-07-25T02:13:45.414Z,44.80
2022-07-25T02:16:13.664Z,44.80
2022-07-25T02:18:41.593Z,44.80
2022-07-25T02:21:14.507Z,44.80
2022-07-25T02:23:43.193Z,44.90
2022-07-25T02:26:11.515Z,44.90
2022-07-25T02:28:41.151Z,45.00
2022-07-25T02:31:09.383Z,44.90
2022-07-25T02:33:37.604Z,45.00
2022-07-25T02:36:05.638Z,45.00
2022-07-25T02:38:33.571Z,45.10
2022-07-25T02:41:01.460Z,45.10
2022-07-25T02:43:29.385Z,45.10
2022-07-25T02:45:58.692Z,45.20
2022-07-25T02:48:26.827Z,45.20
2022-07-25T02:50:54.852Z,45.30
2022-07-25T02:53:40.339Z,45.20
2022-07-25T02:56:10.656Z,45.20
2022-07-25T02:58:38.711Z,45.20
2022-07-25T03:01:08.757Z,45.30
2022-07-25T03:03:36.833Z,45.30
2022-07-25T03:06:05.103Z,45.30
2022-07-25T03:08:33.117Z,45.30
2022-07-25T03:11:01.003Z,45.30
2022-07-25T03:13:28.949Z,45.40
2022-07-25T03:15:57.153Z,45.40
2022-07-25T03:18:26.450Z,45.40
2022-07-25T03:20:54.356Z,45.40
2022-07-25T03:23:22.284Z,45.50
2022-07-25T03:25:50.196Z,45.50
2022-07-25T03:28:18.100Z,45.50
2022-07-25T09:18:13.268Z,76.00
2022-07-25T09:20:44.800Z,69.50
2022-07-25T09:23:14.284Z,70.30
2022-07-25T09:28:11.254Z,70.70
2022-07-25T09:30:39.397Z,69.20
2022-07-25T09:33:07.334Z,70.50
2022-07-25T09:38:14.020Z,64.70
2022-07-25T09:40:42.308Z,64.40
2022-07-25T09:43:10.256Z,66.00
2022-07-25T09:45:38.177Z,66.30
2022-07-25T09:48:06.389Z,66.40
2022-07-25T09:50:34.383Z,67.20
2022-07-25T09:53:03.111Z,68.10
2022-07-25T09:55:33.483Z,68.30
2022-07-25T09:58:01.511Z,65.70
2022-07-25T10:00:30.330Z,68.50
2022-07-25T10:03:06.876Z,69.40
2022-07-25T10:05:43.806Z,69.70
2022-07-25T10:08:11.874Z,70.80
2022-07-25T10:10:42.097Z,69.20
2022-07-25T10:13:11.825Z,36.90
2022-07-25T10:15:43.808Z,37.50
2022-07-25T10:18:11.845Z,72.90
2022-07-25T10:20:39.823Z,69.60
2022-07-25T10:23:17.754Z,70.30
2022-07-25T10:25:49.103Z,70.60
2022-07-25T10:28:19.448Z,63.60
2022-07-25T10:30:47.752Z,68.60
2022-07-25T10:33:16.479Z,65.20
2022-07-25T10:35:44.979Z,61.60
2022-07-25T10:40:42.499Z,62.80
2022-07-25T10:43:13.057Z,62.90
2022-07-25T10:45:44.956Z,64.00
2022-07-25T10:48:13.880Z,65.10
2022-07-25T10:53:31.991Z,65.40
2022-07-25T10:56:05.962Z,32.30
2022-07-25T10:58:51.934Z,31.80
2022-07-25T11:01:26.051Z,31.90
2022-07-25T11:03:54.668Z,32.00
2022-07-25T11:06:32.711Z,32.60
2022-07-25T11:09:01.476Z,32.20
2022-07-25T11:11:36.604Z,31.60
2022-07-25T11:14:04.611Z,31.40
2022-07-25T11:16:34.237Z,31.40
2022-07-25T11:19:02.213Z,31.30
2022-07-25T11:21:30.172Z,31.50
2022-07-25T11:23:58.054Z,31.30
2022-07-25T11:26:26.162Z,31.20
2022-07-25T11:28:54.062Z,31.70
2022-07-25T11:31:23.695Z,32.00
2022-07-25T11:33:53.036Z,32.30
2022-07-25T11:36:21.006Z,32.20
2022-07-25T11:38:49.293Z,32.00
2022-07-25T11:41:17.239Z,32.20
2022-07-25T11:43:49.522Z,31.90
2022-07-25T11:46:18.454Z,32.20
2022-07-25T11:48:47.736Z,32.00
2022-07-25T11:51:18.823Z,32.30
2022-07-25T11:53:48.245Z,32.50
2022-07-25T11:56:40.780Z,32.20
2022-07-25T11:59:05.451Z,32.30
2022-07-25T12:01:37.307Z,32.30
2022-07-25T12:04:12.573Z,33.60
2022-07-25T12:06:41.906Z,32.90
2022-07-25T12:09:18.334Z,31.30
2022-07-25T12:11:47.208Z,31.10
2022-07-25T12:14:15.291Z,30.50
2022-07-25T12:16:43.322Z,30.10
2022-07-25T12:19:18.695Z,29.10
2022-07-25T12:21:48.223Z,29.20
2022-07-25T12:24:16.217Z,29.40
2022-07-25T12:26:44.263Z,29.20
2022-07-25T12:29:12.164Z,28.30
2022-07-25T12:31:40.100Z,28.40
2022-07-25T12:34:08.036Z,27.80
2022-07-25T12:36:41.189Z,28.20
2022-07-25T12:39:10.715Z,28.40
2022-07-25T12:41:40.415Z,28.10
2022-07-25T12:44:08.340Z,28.40
2022-07-25T12:46:38.347Z,27.80
2022-07-25T12:49:06.621Z,27.60
2022-07-25T12:51:34.738Z,27.80
2022-07-25T12:54:02.645Z,28.10
2022-07-25T12:56:32.032Z,27.40
2022-07-25T12:58:59.927Z,27.60
2022-07-25T13:01:27.909Z,27.40
2022-07-25T13:03:55.901Z,27.50
2022-07-25T13:06:23.848Z,26.80
2022-07-25T13:08:51.796Z,27.10
2022-07-25T13:11:19.796Z,27.60
2022-07-25T13:13:49.113Z,27.90
2022-07-25T13:16:17.091Z,27.80
2022-07-25T13:18:45.253Z,27.80
2022-07-25T13:21:13.155Z,28.10
2022-07-25T13:23:41.337Z,28.50
2022-07-25T13:26:09.669Z,28.30
2022-07-25T13:28:37.619Z,27.90
2022-07-25T13:31:07.927Z,27.80
2022-07-25T13:33:35.851Z,27.80
2022-07-25T13:36:03.758Z,28.00
2022-07-25T13:38:31.945Z,28.00
2022-07-25T13:40:59.859Z,28.10
2022-07-25T13:43:27.791Z,28.20
2022-07-25T13:45:55.745Z,28.60
2022-07-25T13:48:29.902Z,28.40
2022-07-25T13:51:00.160Z,28.20
2022-07-25T13:53:30.541Z,28.10
2022-07-25T13:55:59.177Z,27.70
2022-07-25T13:58:27.507Z,27.80
2022-07-25T14:00:55.499Z,27.50
2022-07-25T14:03:23.499Z,27.50
2022-07-25T14:05:52.790Z,27.40
2022-07-25T14:08:20.850Z,27.60
2022-07-25T14:10:48.729Z,27.20
2022-07-25T14:13:16.642Z,27.30
2022-07-25T14:15:44.969Z,27.20
2022-07-25T14:18:12.925Z,27.20
2022-07-25T14:20:40.807Z,27.50
2022-07-25T14:23:10.082Z,27.60
2022-07-25T14:25:38.991Z,27.60
2022-07-25T14:28:06.890Z,27.70
2022-07-25T14:30:34.787Z,27.80
2022-07-25T14:33:02.675Z,27.90
2022-07-25T14:35:32.808Z,27.80
2022-07-25T14:38:00.866Z,27.90
2022-07-25T14:40:30.107Z,27.90
2022-07-25T14:42:58.030Z,28.00
2022-07-25T14:45:25.904Z,28.00
2022-07-25T14:47:54.001Z,28.40
2022-07-25T14:50:21.999Z,28.50
2022-07-25T14:52:49.884Z,28.20
2022-07-25T14:55:18.768Z,28.20
2022-07-25T14:57:48.043Z,27.60
2022-07-25T15:00:16.294Z,27.60
2022-07-25T15:02:44.326Z,27.30
2022-07-25T15:05:12.234Z,27.00
2022-07-25T15:07:40.184Z,27.30
2022-07-25T15:10:08.447Z,27.60
2022-07-25T15:12:36.440Z,27.90
2022-07-25T15:15:06.468Z,28.30
2022-07-25T15:17:34.434Z,28.60
2022-07-25T15:20:02.302Z,28.60
2022-07-25T15:22:30.470Z,28.80
2022-07-25T15:25:29.804Z,29.10
2022-07-25T15:27:46.324Z,29.40
2022-07-25T15:30:15.593Z,29.40
2022-07-25T15:32:45.272Z,29.50
2022-07-25T15:35:13.141Z,29.50
2022-07-25T15:37:41.007Z,29.60
2022-07-25T15:40:09.399Z,29.90
2022-07-25T15:42:39.040Z,29.90
2022-07-25T15:45:32.151Z,30.00
2022-07-25T15:47:57.396Z,29.90
2022-07-25T15:50:25.377Z,29.80
2022-07-25T15:52:53.293Z,29.70
2022-07-25T15:55:21.239Z,29.70
2022-07-25T15:57:49.122Z,29.80
2022-07-25T16:00:17.164Z,29.80
2022-07-25T16:02:46.517Z,29.80
2022-07-25T16:05:15.814Z,29.80
2022-07-25T16:07:44.096Z,29.70
2022-07-25T16:10:12.184Z,30.40
2022-07-25T16:12:40.242Z,29.90
2022-07-25T16:15:08.816Z,30.00
2022-07-25T16:17:37.340Z,30.00
2022-07-25T16:20:06.697Z,29.90
2022-07-25T16:22:36.056Z,29.80
2022-07-25T16:25:04.239Z,29.80
2022-07-25T16:27:32.188Z,29.50
2022-07-25T16:30:00.222Z,29.40
2022-07-25T16:32:28.231Z,29.60
2022-07-25T16:34:56.280Z,30.20
2022-07-25T16:37:24.273Z,30.70
2022-07-25T16:39:53.844Z,31.10
2022-07-25T16:42:21.843Z,31.40
2022-07-25T16:44:49.889Z,31.70
2022-07-25T16:47:17.883Z,32.30
2022-07-25T16:49:45.903Z,32.50
2022-07-25T16:52:14.292Z,33.00
2022-07-25T16:54:42.577Z,32.90
2022-07-25T16:57:11.963Z,33.20
2022-07-25T16:59:39.998Z,33.20
2022-07-25T17:02:08.097Z,33.40
2022-07-25T17:04:36.410Z,33.40
2022-07-25T17:07:04.631Z,33.70
2022-07-25T17:09:32.619Z,34.10
2022-07-25T17:12:00.608Z,34.10
2022-07-25T17:14:30.488Z,34.20
2022-07-25T17:16:58.797Z,34.70
2022-07-25T17:19:26.809Z,34.70
2022-07-25T17:21:54.773Z,34.70
2022-07-25T17:24:22.825Z,35.20
2022-07-25T17:26:50.827Z,34.60
2022-07-25T17:29:18.837Z,34.90
2022-07-25T17:31:48.279Z,35.20
2022-07-25T17:34:16.357Z,35.20
2022-07-25T17:36:44.427Z,35.40
2022-07-25T17:39:12.833Z,35.60
2022-07-25T17:41:40.954Z,35.20
2022-07-25T17:44:12.172Z,35.40
2022-07-25T17:46:40.604Z,35.50
2022-07-25T17:49:10.505Z,35.40
2022-07-25T17:51:38.625Z,35.70
2022-07-25T17:54:06.990Z,35.60
2022-07-25T17:56:35.197Z,35.90
2022-07-25T17:59:03.477Z,35.80
2022-07-25T18:01:32.066Z,35.90
2022-07-25T18:04:00.120Z,35.20
2022-07-25T18:06:30.227Z,35.50
2022-07-25T18:08:58.389Z,35.40
2022-07-25T18:11:27.876Z,34.70
2022-07-25T18:13:56.119Z,34.70
2022-07-25T18:16:24.220Z,34.70
2022-07-25T18:18:52.133Z,34.90
2022-07-25T18:21:20.040Z,34.90
2022-07-25T18:23:49.300Z,34.70
2022-07-25T18:26:17.973Z,34.60
2022-07-25T18:28:45.958Z,34.30
2022-07-25T18:31:19.963Z,34.50
2022-07-25T18:33:47.895Z,34.40
2022-07-25T18:36:15.828Z,34.70
2022-07-25T18:38:43.725Z,34.80
2022-07-25T18:41:28.744Z,34.70
2022-07-25T18:43:57.386Z,35.00
2022-07-25T18:46:25.599Z,35.10
2022-07-25T18:48:54.095Z,35.30
2022-07-25T18:51:22.053Z,35.30
2022-07-25T18:53:49.942Z,35.20
2022-07-25T18:56:19.193Z,35.20
2022-07-25T18:58:47.091Z,35.20
2022-07-25T19:01:15.073Z,35.00
2022-07-25T19:03:43.035Z,35.10
2022-07-25T19:06:11.229Z,34.90
2022-07-25T19:08:39.121Z,34.90
2022-07-25T19:11:07.114Z,34.90
2022-07-25T19:13:49.537Z,34.90
2022-07-25T19:16:17.794Z,34.90
2022-07-25T19:18:45.852Z,34.90
2022-07-25T19:21:13.853Z,34.80
2022-07-25T19:23:44.672Z,35.00
2022-07-25T19:26:16.185Z,35.20
2022-07-25T19:28:45.462Z,35.30
2022-07-25T19:31:15.619Z,35.30
2022-07-25T19:33:45.612Z,35.40
2022-07-25T19:36:13.642Z,35.30
2022-07-25T19:38:41.511Z,35.40
2022-07-25T19:41:09.642Z,35.10
2022-07-25T19:46:09.346Z,72.50
2022-07-25T21:07:53.142Z,69.90
2022-07-25T21:10:21.249Z,72.00
2022-07-25T22:30:16.505Z,69.30
2022-07-25T22:32:47.004Z,57.60
2022-07-25T22:37:43.262Z,62.00
2022-07-25T22:40:11.698Z,66.60
2022-07-25T22:47:37.346Z,72.20
2022-07-25T22:50:05.960Z,72.80
2022-07-25T22:52:35.015Z,74.60
2022-07-25T22:55:03.015Z,75.70
2022-07-25T22:57:36.743Z,76.00
2022-07-25T23:00:07.047Z,77.60
